createdAt,value
2018-12-21T00:00:40.032Z,949.57
2018-12-21T00:01:39.991Z,949.63
2018-12-21T00:02:39.979Z,949.61
2018-12-21T00:03:39.969Z,949.62
2018-12-21T00:04:39.956Z,949.55
2018-12-21T00:05:39.968Z,949.63
2018-12-21T00:06:39.935Z,949.60
2018-12-21T00:07:39.923Z,949.60
2018-12-21T00:08:39.915Z,949.57
2018-12-21T00:09:39.915Z,949.59
2018-12-21T00:10:39.892Z,949.61
2018-12-21T00:11:39.923Z,949.57
2018-12-21T00:12:39.876Z,949.61
2018-12-21T00:13:39.867Z,949.56
2018-12-21T00:14:39.857Z,949.60
2018-12-21T00:15:39.858Z,949.60
2018-12-21T00:16:39.823Z,949.60
2018-12-21T00:17:39.822Z,949.61
2018-12-21T00:18:39.802Z,949.58
2018-12-21T00:19:39.799Z,949.58
2018-12-21T00:20:39.782Z,949.56
2018-12-21T00:21:39.782Z,949.50
2018-12-21T00:22:39.800Z,949.53
2018-12-21T00:23:39.745Z,949.51
2018-12-21T00:24:39.740Z,949.48
2018-12-21T00:25:39.733Z,949.49
2018-12-21T00:26:39.715Z,949.46
2018-12-21T00:27:39.717Z,949.44
2018-12-21T00:28:39.733Z,949.43
2018-12-21T00:29:39.691Z,949.51
2018-12-21T00:30:39.668Z,949.43
2018-12-21T00:31:39.659Z,949.39
2018-12-21T00:32:39.648Z,949.37
2018-12-21T00:33:39.649Z,949.39
2018-12-21T00:34:39.646Z,949.36
2018-12-21T00:35:39.622Z,949.39
2018-12-21T00:36:39.724Z,949.36
2018-12-21T00:37:39.598Z,949.36
2018-12-21T00:38:39.577Z,949.37
2018-12-21T00:39:39.591Z,949.35
2018-12-21T00:40:39.556Z,949.35
2018-12-21T00:41:39.551Z,949.35
2018-12-21T00:42:39.541Z,949.30
2018-12-21T00:43:39.534Z,949.34
2018-12-21T00:44:39.530Z,949.31
2018-12-21T00:45:39.520Z,949.36
2018-12-21T00:46:39.486Z,949.35
2018-12-21T00:47:39.485Z,949.42
2018-12-21T00:48:39.471Z,949.37
2018-12-21T00:49:39.499Z,949.38
2018-12-21T00:50:39.452Z,949.39
2018-12-21T00:51:39.461Z,949.36
2018-12-21T00:52:39.426Z,949.36
2018-12-21T00:53:39.415Z,949.28
2018-12-21T00:54:39.400Z,949.39
2018-12-21T00:55:39.418Z,949.37
2018-12-21T00:56:39.382Z,949.36
2018-12-21T00:57:39.381Z,949.27
2018-12-21T00:58:39.352Z,949.32
2018-12-21T00:59:39.343Z,949.33
2018-12-21T01:00:39.334Z,949.31
2018-12-21T01:01:39.351Z,949.31
2018-12-21T01:02:39.326Z,949.24
2018-12-21T01:03:39.317Z,949.31
2018-12-21T01:04:39.291Z,949.28
2018-12-21T01:05:39.286Z,949.34
2018-12-21T01:06:39.276Z,949.26
2018-12-21T01:07:39.269Z,949.27
2018-12-21T01:08:39.249Z,949.28
2018-12-21T01:09:39.263Z,949.30
2018-12-21T01:10:39.218Z,949.30
2018-12-21T01:11:39.216Z,949.36
2018-12-21T01:12:39.222Z,949.24
2018-12-21T01:13:39.196Z,949.30
2018-12-21T01:14:39.185Z,949.35
2018-12-21T01:15:39.174Z,949.33
2018-12-21T01:16:39.160Z,949.36
2018-12-21T01:17:39.146Z,949.38
2018-12-21T01:18:39.161Z,949.34
2018-12-21T01:19:39.124Z,949.37
2018-12-21T01:20:39.121Z,949.36
2018-12-21T01:21:39.234Z,949.44
2018-12-21T01:22:39.094Z,949.44
2018-12-21T01:23:39.077Z,949.40
2018-12-21T01:24:39.072Z,949.39
2018-12-21T01:25:39.055Z,949.43
2018-12-21T01:26:39.046Z,949.46
2018-12-21T01:27:39.034Z,949.37
2018-12-21T01:28:39.014Z,949.43
2018-12-21T01:29:39.030Z,949.36
2018-12-21T01:30:39.001Z,949.38
2018-12-21T01:31:38.986Z,949.38
2018-12-21T01:32:38.993Z,949.40
2018-12-21T01:33:38.961Z,949.39
2018-12-21T01:34:38.958Z,949.41
2018-12-21T01:35:38.961Z,949.41
2018-12-21T01:36:38.933Z,949.40
2018-12-21T01:37:38.917Z,949.40
2018-12-21T01:38:38.919Z,949.39
2018-12-21T01:39:38.897Z,949.43
2018-12-21T01:40:38.887Z,949.36
2018-12-21T01:41:38.891Z,949.42
2018-12-21T01:42:38.866Z,949.33
2018-12-21T01:43:38.849Z,949.28
2018-12-21T01:44:38.856Z,949.34
2018-12-21T01:45:38.835Z,949.34
2018-12-21T01:46:38.849Z,949.36
2018-12-21T01:47:38.807Z,949.31
2018-12-21T01:48:38.800Z,949.36
2018-12-21T01:49:38.782Z,949.35
2018-12-21T01:50:38.795Z,949.25
2018-12-21T01:51:46.930Z,949.35
2018-12-21T01:52:38.775Z,949.34
2018-12-21T01:53:38.738Z,949.41
2018-12-21T01:54:38.736Z,949.33
2018-12-21T01:55:38.719Z,949.38
2018-12-21T01:56:38.732Z,949.28
2018-12-21T01:57:38.703Z,949.35
2018-12-21T01:58:38.693Z,949.28
2018-12-21T01:59:38.676Z,949.29
2018-12-21T02:00:38.666Z,949.29
2018-12-21T02:01:38.650Z,949.30
2018-12-21T02:02:38.671Z,949.28
2018-12-21T02:03:38.654Z,949.28
2018-12-21T02:04:38.623Z,949.30
2018-12-21T02:05:38.621Z,949.30
2018-12-21T02:06:38.602Z,949.32
2018-12-21T02:07:38.589Z,949.35
2018-12-21T02:08:38.591Z,949.31
2018-12-21T02:09:38.596Z,949.27
2018-12-21T02:10:38.555Z,949.19
2018-12-21T02:11:38.548Z,949.18
2018-12-21T02:12:38.532Z,949.13
2018-12-21T02:13:38.587Z,949.15
2018-12-21T02:14:38.538Z,949.12
2018-12-21T02:15:38.517Z,949.13
2018-12-21T02:16:38.490Z,949.11
2018-12-21T02:17:38.485Z,949.13
2018-12-21T02:18:38.467Z,949.09
2018-12-21T02:19:38.451Z,949.07
2018-12-21T02:20:38.463Z,949.02
2018-12-21T02:21:38.452Z,949.05
2018-12-21T02:22:38.419Z,949.01
2018-12-21T02:23:38.409Z,949.11
2018-12-21T02:24:38.398Z,949.08
2018-12-21T02:25:38.384Z,949.06
2018-12-21T02:26:38.401Z,949.06
2018-12-21T02:27:38.385Z,949.07
2018-12-21T02:28:38.351Z,949.01
2018-12-21T02:29:38.342Z,949.12
2018-12-21T02:30:38.326Z,949.01
2018-12-21T02:31:38.324Z,949.04
2018-12-21T02:32:38.319Z,949.08
2018-12-21T02:33:38.310Z,949.08
2018-12-21T02:34:38.285Z,949.04
2018-12-21T02:35:38.281Z,949.08
2018-12-21T02:36:38.267Z,949.05
2018-12-21T02:37:38.251Z,949.04
2018-12-21T02:38:38.283Z,948.99
2018-12-21T02:39:38.235Z,948.95
2018-12-21T02:40:38.219Z,948.92
2018-12-21T02:41:38.207Z,949.02
2018-12-21T02:42:38.201Z,948.91
2018-12-21T02:43:38.287Z,948.93
2018-12-21T02:44:38.219Z,948.94
2018-12-21T02:45:38.172Z,948.91
2018-12-21T02:46:38.154Z,948.86
2018-12-21T02:47:38.138Z,948.86
2018-12-21T02:48:38.127Z,948.90
2018-12-21T02:49:38.118Z,948.83
2018-12-21T02:50:38.132Z,948.85
2018-12-21T02:51:38.096Z,948.82
2018-12-21T02:52:38.079Z,948.84
2018-12-21T02:53:38.073Z,948.82
2018-12-21T02:54:38.063Z,948.83
2018-12-21T02:55:38.080Z,948.88
2018-12-21T02:56:38.070Z,948.88
2018-12-21T02:57:38.028Z,948.86
2018-12-21T02:58:38.039Z,948.87
2018-12-21T02:59:38.006Z,948.89
2018-12-21T03:00:37.995Z,948.86
2018-12-21T03:01:38.003Z,948.87
2018-12-21T03:02:38.004Z,948.81
2018-12-21T03:03:37.959Z,948.84
2018-12-21T03:04:37.953Z,948.83
2018-12-21T03:05:37.939Z,948.86
2018-12-21T03:06:37.980Z,948.90
2018-12-21T03:07:37.926Z,948.78
2018-12-21T03:08:37.911Z,948.86
2018-12-21T03:09:37.898Z,948.87
2018-12-21T03:10:37.883Z,948.83
2018-12-21T03:11:37.875Z,948.79
2018-12-21T03:12:37.893Z,948.76
2018-12-21T03:13:37.862Z,948.75
2018-12-21T03:14:37.842Z,948.79
2018-12-21T03:15:37.832Z,948.76
2018-12-21T03:16:37.820Z,948.77
2018-12-21T03:17:37.807Z,948.76
2018-12-21T03:18:37.829Z,948.72
2018-12-21T03:19:37.784Z,948.70
2018-12-21T03:20:37.772Z,948.67
2018-12-21T03:21:37.758Z,948.66
2018-12-21T03:22:37.763Z,948.62
2018-12-21T03:23:37.744Z,948.64
2018-12-21T03:24:37.748Z,948.67
2018-12-21T03:25:37.726Z,948.66
2018-12-21T03:26:37.720Z,948.62
2018-12-21T03:27:37.707Z,948.58
2018-12-21T03:28:37.722Z,948.65
2018-12-21T03:29:37.713Z,948.61
2018-12-21T03:30:37.672Z,948.65
2018-12-21T03:31:37.662Z,948.64
2018-12-21T03:32:37.663Z,948.62
2018-12-21T03:33:37.649Z,948.58
2018-12-21T03:34:37.636Z,948.65
2018-12-21T03:35:37.651Z,948.60
2018-12-21T03:36:37.639Z,948.60
2018-12-21T03:37:37.582Z,948.59
2018-12-21T03:38:37.576Z,948.57
2018-12-21T03:39:37.564Z,948.62
2018-12-21T03:40:37.573Z,948.59
2018-12-21T03:41:37.629Z,948.59
2018-12-21T03:42:37.543Z,948.62
2018-12-21T03:43:37.537Z,948.63
2018-12-21T03:44:37.535Z,948.62
2018-12-21T03:45:37.501Z,948.53
2018-12-21T03:46:37.505Z,948.49
2018-12-21T03:47:37.517Z,948.56
2018-12-21T03:48:37.498Z,948.50
2018-12-21T03:49:37.453Z,948.46
2018-12-21T03:50:37.466Z,948.40
2018-12-21T03:51:38.479Z,948.33
2018-12-21T03:52:37.736Z,948.43
2018-12-21T03:53:37.431Z,948.45
2018-12-21T03:54:37.461Z,948.39
2018-12-21T03:55:37.406Z,948.37
2018-12-21T03:56:37.383Z,948.35
2018-12-21T03:57:37.385Z,948.35
2018-12-21T03:58:37.393Z,948.36
2018-12-21T03:59:37.360Z,948.41
2018-12-21T04:00:37.378Z,948.39
2018-12-21T04:01:37.335Z,948.33
2018-12-21T04:02:37.309Z,948.28
2018-12-21T04:03:37.311Z,948.31
2018-12-21T04:04:37.295Z,948.35
2018-12-21T04:05:37.298Z,948.27
2018-12-21T04:06:37.294Z,948.29
2018-12-21T04:07:37.282Z,948.27
2018-12-21T04:08:37.248Z,948.21
2018-12-21T04:09:37.285Z,948.25
2018-12-21T04:10:37.220Z,948.25
2018-12-21T04:11:37.211Z,948.23
2018-12-21T04:12:37.203Z,948.25
2018-12-21T04:13:37.201Z,948.22
2018-12-21T04:14:37.171Z,948.23
2018-12-21T04:15:37.232Z,948.23
2018-12-21T04:16:37.221Z,948.22
2018-12-21T04:17:37.174Z,948.25
2018-12-21T04:18:37.160Z,948.20
2018-12-21T04:19:37.134Z,948.19
2018-12-21T04:20:37.138Z,948.14
2018-12-21T04:21:37.107Z,948.15
2018-12-21T04:22:37.118Z,948.17
2018-12-21T04:23:37.081Z,948.13
2018-12-21T04:24:37.100Z,948.13
2018-12-21T04:25:37.052Z,948.15
2018-12-21T04:26:37.095Z,948.11
2018-12-21T04:27:37.047Z,948.09
2018-12-21T04:28:37.071Z,948.02
2018-12-21T04:29:37.021Z,948.04
2018-12-21T04:30:37.048Z,948.03
2018-12-21T04:31:36.987Z,948.00
2018-12-21T04:32:37.014Z,947.98
2018-12-21T04:33:36.971Z,947.99
2018-12-21T04:34:36.994Z,948.04
2018-12-21T04:35:37.004Z,948.06
2018-12-21T04:36:36.951Z,948.11
2018-12-21T04:37:36.954Z,948.08
2018-12-21T04:38:36.969Z,948.06
2018-12-21T04:39:36.957Z,948.00
2018-12-21T04:40:36.899Z,947.99
2018-12-21T04:41:36.897Z,947.96
2018-12-21T04:42:36.878Z,948.01
2018-12-21T04:43:36.932Z,948.03
2018-12-21T04:44:36.848Z,947.91
2018-12-21T04:45:36.842Z,947.98
2018-12-21T04:46:36.842Z,947.99
2018-12-21T04:47:36.830Z,948.00
2018-12-21T04:48:36.798Z,947.98
2018-12-21T04:49:36.813Z,947.94
2018-12-21T04:50:36.819Z,947.99
2018-12-21T04:51:36.762Z,948.01
2018-12-21T04:52:43.210Z,947.99
2018-12-21T04:53:37.765Z,947.97
2018-12-21T04:54:36.754Z,948.00
2018-12-21T04:55:36.764Z,948.04
2018-12-21T04:56:36.704Z,948.01
2018-12-21T04:57:36.700Z,947.89
2018-12-21T04:58:36.702Z,947.98
2018-12-21T04:59:36.695Z,947.95
2018-12-21T05:00:36.718Z,947.95
2018-12-21T05:01:36.665Z,947.99
2018-12-21T05:02:36.669Z,948.01
2018-12-21T05:03:37.361Z,947.99
2018-12-21T05:04:36.613Z,947.96
2018-12-21T05:05:36.608Z,947.96
2018-12-21T05:06:36.633Z,947.94
2018-12-21T05:07:36.631Z,947.92
2018-12-21T05:08:36.591Z,947.94
2018-12-21T05:09:36.606Z,947.88
2018-12-21T05:10:36.567Z,947.90
2018-12-21T05:11:36.571Z,947.91
2018-12-21T05:12:37.259Z,947.91
2018-12-21T05:13:36.548Z,947.90
2018-12-21T05:14:36.507Z,947.90
2018-12-21T05:15:36.532Z,947.94
2018-12-21T05:16:36.474Z,947.94
2018-12-21T05:17:36.533Z,947.91
2018-12-21T05:18:36.498Z,947.94
2018-12-21T05:19:36.456Z,947.96
2018-12-21T05:20:37.247Z,947.98
2018-12-21T05:21:36.485Z,947.96
2018-12-21T05:22:36.419Z,947.91
2018-12-21T05:23:36.444Z,947.93
2018-12-21T05:24:36.424Z,947.94
2018-12-21T05:25:37.270Z,947.91
2018-12-21T05:26:36.454Z,947.91
2018-12-21T05:27:36.353Z,947.91
2018-12-21T05:28:57.507Z,947.90
2018-12-21T05:29:39.528Z,947.86
2018-12-21T05:30:36.347Z,947.84
2018-12-21T05:31:37.231Z,947.86
2018-12-21T05:32:36.306Z,947.82
2018-12-21T05:33:37.244Z,947.85
2018-12-21T05:34:36.309Z,947.87
2018-12-21T05:35:36.262Z,947.84
2018-12-21T05:36:36.262Z,947.81
2018-12-21T05:37:36.245Z,947.84
2018-12-21T05:38:36.225Z,947.85
2018-12-21T05:39:36.228Z,947.82
2018-12-21T05:40:36.244Z,947.83
2018-12-21T05:41:36.237Z,947.80
2018-12-21T05:42:36.179Z,947.76
2018-12-21T05:43:36.179Z,947.77
2018-12-21T05:44:36.163Z,947.75
2018-12-21T05:45:36.170Z,947.80
2018-12-21T05:46:36.140Z,947.74
2018-12-21T05:47:36.132Z,947.77
2018-12-21T05:48:36.134Z,947.76
2018-12-21T05:49:36.102Z,947.75
2018-12-21T05:50:36.091Z,947.73
2018-12-21T05:51:36.106Z,947.77
2018-12-21T05:52:36.063Z,947.82
2018-12-21T05:53:36.059Z,947.73
2018-12-21T05:54:36.040Z,947.80
2018-12-21T05:55:36.055Z,947.77
2018-12-21T05:56:36.028Z,947.82
2018-12-21T05:57:36.015Z,947.74
2018-12-21T05:58:35.999Z,947.74
2018-12-21T05:59:35.989Z,947.72
2018-12-21T06:00:36.221Z,947.76
2018-12-21T06:01:35.978Z,947.69
2018-12-21T06:02:35.986Z,947.72
2018-12-21T06:03:35.945Z,947.68
2018-12-21T06:04:35.934Z,947.67
2018-12-21T06:05:35.925Z,947.67
2018-12-21T06:06:35.907Z,947.65
2018-12-21T06:07:35.910Z,947.58
2018-12-21T06:08:35.910Z,947.59
2018-12-21T06:09:35.882Z,947.59
2018-12-21T06:10:35.868Z,947.62
2018-12-21T06:11:35.862Z,947.62
2018-12-21T06:12:35.848Z,947.54
2018-12-21T06:13:36.755Z,947.52
2018-12-21T06:14:35.849Z,947.52
2018-12-21T06:15:35.810Z,947.49
2018-12-21T06:16:35.803Z,947.44
2018-12-21T06:17:36.728Z,947.44
2018-12-21T06:18:35.770Z,947.41
2018-12-21T06:19:35.790Z,947.44
2018-12-21T06:20:35.752Z,947.41
2018-12-21T06:21:35.745Z,947.39
2018-12-21T06:22:35.728Z,947.29
2018-12-21T06:23:35.720Z,947.31
2018-12-21T06:24:35.800Z,947.31
2018-12-21T06:25:38.746Z,947.31
2018-12-21T06:26:35.687Z,947.33
2018-12-21T06:27:36.239Z,947.26
2018-12-21T06:28:56.833Z,947.27
2018-12-21T06:29:35.649Z,947.24
2018-12-21T06:30:35.647Z,947.26
2018-12-21T06:31:35.639Z,947.25
2018-12-21T06:32:35.616Z,947.25
2018-12-21T06:33:35.605Z,947.18
2018-12-21T06:34:35.594Z,947.18
2018-12-21T06:35:35.580Z,947.19
2018-12-21T06:36:35.589Z,947.17
2018-12-21T06:37:35.559Z,947.17
2018-12-21T06:38:35.560Z,947.12
2018-12-21T06:39:35.536Z,947.17
2018-12-21T06:40:35.522Z,947.15
2018-12-21T06:41:35.521Z,947.11
2018-12-21T06:42:35.547Z,947.06
2018-12-21T06:43:35.489Z,947.07
2018-12-21T06:44:35.487Z,947.03
2018-12-21T06:45:35.468Z,946.98
2018-12-21T06:46:35.454Z,946.98
2018-12-21T06:47:35.448Z,946.93
2018-12-21T06:48:35.464Z,946.97
2018-12-21T06:49:35.421Z,946.97
2018-12-21T06:50:35.412Z,947.04
2018-12-21T06:51:35.405Z,947.02
2018-12-21T06:52:35.394Z,946.99
2018-12-21T06:53:35.390Z,947.00
2018-12-21T06:54:35.373Z,947.03
2018-12-21T06:55:35.358Z,946.97
2018-12-21T06:56:35.353Z,946.98
2018-12-21T06:57:35.345Z,946.98
2018-12-21T06:58:35.329Z,946.95
2018-12-21T06:59:35.337Z,946.94
2018-12-21T07:00:35.302Z,947.05
2018-12-21T07:01:35.286Z,947.04
2018-12-21T07:02:35.406Z,946.97
2018-12-21T07:03:35.272Z,947.00
2018-12-21T07:04:35.261Z,947.00
2018-12-21T07:05:35.279Z,946.93
2018-12-21T07:06:35.237Z,946.99
2018-12-21T07:07:35.229Z,946.99
2018-12-21T07:08:35.230Z,947.02
2018-12-21T07:09:35.209Z,946.96
2018-12-21T07:10:35.209Z,947.01
2018-12-21T07:11:35.237Z,946.96
2018-12-21T07:12:35.163Z,946.95
2018-12-21T07:13:35.159Z,946.96
2018-12-21T07:14:35.172Z,947.01
2018-12-21T07:15:35.144Z,946.95
2018-12-21T07:16:35.156Z,947.02
2018-12-21T07:17:35.120Z,946.94
2018-12-21T07:18:35.115Z,946.97
2018-12-21T07:19:35.088Z,946.99
2018-12-21T07:20:35.093Z,946.99
2018-12-21T07:21:35.178Z,947.00
2018-12-21T07:22:35.082Z,946.93
2018-12-21T07:23:35.052Z,946.97
2018-12-21T07:24:35.034Z,946.91
2018-12-21T07:25:35.027Z,946.97
2018-12-21T07:26:35.008Z,946.98
2018-12-21T07:27:35.023Z,946.97
2018-12-21T07:28:42.834Z,946.94
2018-12-21T07:29:34.988Z,946.96
2018-12-21T07:30:34.973Z,947.00
2018-12-21T07:31:34.952Z,946.98
2018-12-21T07:32:34.965Z,946.98
2018-12-21T07:33:34.961Z,946.98
2018-12-21T07:34:34.924Z,947.01
2018-12-21T07:35:34.917Z,946.95
2018-12-21T07:36:34.950Z,946.92
2018-12-21T07:37:34.892Z,946.91
2018-12-21T07:38:35.750Z,946.86
2018-12-21T07:39:34.890Z,946.83
2018-12-21T07:40:34.865Z,946.83
2018-12-21T07:41:34.839Z,946.82
2018-12-21T07:42:34.836Z,946.77
2018-12-21T07:43:41.782Z,946.73
2018-12-21T07:44:34.825Z,946.77
2018-12-21T07:45:34.812Z,946.74
2018-12-21T07:46:34.802Z,946.65
2018-12-21T07:47:34.789Z,946.60
2018-12-21T07:48:34.767Z,946.67
2018-12-21T07:49:35.727Z,946.67
2018-12-21T07:50:34.827Z,946.67
2018-12-21T07:51:34.727Z,946.67
2018-12-21T07:52:34.722Z,946.62
2018-12-21T07:53:35.917Z,946.59
2018-12-21T07:54:34.695Z,946.55
2018-12-21T07:55:34.682Z,946.50
2018-12-21T07:56:34.760Z,946.52
2018-12-21T07:57:34.676Z,946.52
2018-12-21T07:58:34.649Z,946.54
2018-12-21T07:59:34.645Z,946.52
2018-12-21T08:00:34.624Z,946.53
2018-12-21T08:01:34.623Z,946.50
2018-12-21T08:02:34.624Z,946.56
2018-12-21T08:03:34.602Z,946.55
2018-12-21T08:04:34.601Z,946.54
2018-12-21T08:05:34.566Z,946.53
2018-12-21T08:06:34.577Z,946.41
2018-12-21T08:07:34.598Z,946.41
2018-12-21T08:08:34.543Z,946.34
2018-12-21T08:09:34.537Z,946.41
2018-12-21T08:10:34.533Z,946.36
2018-12-21T08:11:34.509Z,946.32
2018-12-21T08:12:34.501Z,946.31
2018-12-21T08:13:48.782Z,946.32
2018-12-21T08:14:34.482Z,946.31
2018-12-21T08:15:35.233Z,946.31
2018-12-21T08:16:34.446Z,946.35
2018-12-21T08:17:34.441Z,946.27
2018-12-21T08:18:34.426Z,946.30
2018-12-21T08:19:34.450Z,946.30
2018-12-21T08:20:34.410Z,946.30
2018-12-21T08:21:34.405Z,946.24
2018-12-21T08:22:34.381Z,946.30
2018-12-21T08:23:34.394Z,946.30
2018-12-21T08:24:34.370Z,946.29
2018-12-21T08:25:34.377Z,946.27
2018-12-21T08:26:35.331Z,946.25
2018-12-21T08:27:34.344Z,946.24
2018-12-21T08:28:34.311Z,946.23
2018-12-21T08:29:34.312Z,946.22
2018-12-21T08:30:34.323Z,946.19
2018-12-21T08:31:34.284Z,946.19
2018-12-21T08:32:34.270Z,946.11
2018-12-21T08:33:34.281Z,946.17
2018-12-21T08:34:34.252Z,946.15
2018-12-21T08:35:34.245Z,946.11
2018-12-21T08:36:34.260Z,946.16
2018-12-21T08:37:34.219Z,946.10
2018-12-21T08:38:34.207Z,946.08
2018-12-21T08:39:34.200Z,945.97
2018-12-21T08:40:34.221Z,946.03
2018-12-21T08:41:34.190Z,946.03
2018-12-21T08:42:34.188Z,945.97
2018-12-21T08:43:34.195Z,945.94
2018-12-21T08:44:34.144Z,945.96
2018-12-21T08:45:34.125Z,945.99
2018-12-21T08:46:34.114Z,945.91
2018-12-21T08:47:34.160Z,945.87
2018-12-21T08:48:34.098Z,945.88
2018-12-21T08:49:34.099Z,945.88
2018-12-21T08:50:34.071Z,945.81
2018-12-21T08:51:34.066Z,945.82
2018-12-21T08:52:34.088Z,945.81
2018-12-21T08:53:35.190Z,945.78
2018-12-21T08:54:34.025Z,945.73
2018-12-21T08:55:34.036Z,945.67
2018-12-21T08:56:34.005Z,945.69
2018-12-21T08:57:34.006Z,945.59
2018-12-21T08:58:33.985Z,945.64
2018-12-21T08:59:34.270Z,945.59
2018-12-21T09:00:33.967Z,945.56
2018-12-21T09:01:33.950Z,945.53
2018-12-21T09:02:33.935Z,945.56
2018-12-21T09:03:33.941Z,945.58
2018-12-21T09:04:33.953Z,945.50
2018-12-21T09:05:34.008Z,945.52
2018-12-21T09:06:33.916Z,945.61
2018-12-21T09:07:33.872Z,945.56
2018-12-21T09:08:33.868Z,945.59
2018-12-21T09:09:33.858Z,945.55
2018-12-21T09:10:33.867Z,945.58
2018-12-21T09:11:33.863Z,945.58
2018-12-21T09:12:33.829Z,945.51
2018-12-21T09:13:33.809Z,945.51
2018-12-21T09:14:33.807Z,945.45
2018-12-21T09:15:33.808Z,945.45
2018-12-21T09:16:33.789Z,945.44
2018-12-21T09:17:33.798Z,945.40
2018-12-21T09:18:33.759Z,945.34
2018-12-21T09:19:33.752Z,945.36
2018-12-21T09:20:33.738Z,945.33
2018-12-21T09:21:33.763Z,945.35
2018-12-21T09:22:33.740Z,945.29
2018-12-21T09:23:33.711Z,945.31
2018-12-21T09:24:33.733Z,945.28
2018-12-21T09:25:33.674Z,945.28
2018-12-21T09:26:33.669Z,945.21
2018-12-21T09:27:33.681Z,945.20
2018-12-21T09:28:33.651Z,945.19
2018-12-21T09:29:33.627Z,945.20
2018-12-21T09:30:33.634Z,945.21
2018-12-21T09:31:33.635Z,945.10
2018-12-21T09:32:33.601Z,945.15
2018-12-21T09:33:33.620Z,945.20
2018-12-21T09:34:33.580Z,945.12
2018-12-21T09:35:33.571Z,945.17
2018-12-21T09:36:33.554Z,945.16
2018-12-21T09:37:33.545Z,945.13
2018-12-21T09:38:33.581Z,945.09
2018-12-21T09:39:33.528Z,945.06
2018-12-21T09:40:33.514Z,944.96
2018-12-21T09:41:33.502Z,944.96
2018-12-21T09:42:33.485Z,944.98
2018-12-21T09:43:33.485Z,944.93
2018-12-21T09:44:33.515Z,944.94
2018-12-21T09:45:33.456Z,944.90
2018-12-21T09:46:33.446Z,944.92
2018-12-21T09:47:33.434Z,944.88
2018-12-21T09:48:33.429Z,944.83
2018-12-21T09:49:33.412Z,944.80
2018-12-21T09:50:33.449Z,944.78
2018-12-21T09:51:33.393Z,944.68
2018-12-21T09:52:33.381Z,944.67
2018-12-21T09:53:33.375Z,944.60
2018-12-21T09:54:33.356Z,944.59
2018-12-21T09:55:33.355Z,944.58
2018-12-21T09:56:33.378Z,944.62
2018-12-21T09:57:33.325Z,944.59
2018-12-21T09:58:33.318Z,944.53
2018-12-21T09:59:33.300Z,944.49
2018-12-21T10:00:33.296Z,944.51
2018-12-21T10:01:33.321Z,944.48
2018-12-21T10:02:35.927Z,944.46
2018-12-21T10:03:33.272Z,944.38
2018-12-21T10:04:33.256Z,944.32
2018-12-21T10:05:33.249Z,944.26
2018-12-21T10:06:33.234Z,944.20
2018-12-21T10:07:33.238Z,944.20
2018-12-21T10:08:33.193Z,944.15
2018-12-21T10:09:34.174Z,944.10
2018-12-21T10:10:33.174Z,944.11
2018-12-21T10:11:33.175Z,944.09
2018-12-21T10:12:33.151Z,944.12
2018-12-21T10:13:33.174Z,944.11
2018-12-21T10:14:33.128Z,944.05
2018-12-21T10:15:33.138Z,944.09
2018-12-21T10:16:33.114Z,944.04
2018-12-21T10:17:33.116Z,944.01
2018-12-21T10:18:33.130Z,943.97
2018-12-21T10:19:33.091Z,943.99
2018-12-21T10:20:33.064Z,943.98
2018-12-21T10:21:33.057Z,943.93
2018-12-21T10:22:33.062Z,943.85
2018-12-21T10:23:33.048Z,943.90
2018-12-21T10:24:33.044Z,943.89
2018-12-21T10:25:33.009Z,943.89
2018-12-21T10:26:33.003Z,943.80
2018-12-21T10:27:32.987Z,943.83
2018-12-21T10:28:32.991Z,943.82
2018-12-21T10:29:32.976Z,943.83
2018-12-21T10:30:32.978Z,943.71
2018-12-21T10:31:32.949Z,943.79
2018-12-21T10:32:32.942Z,943.75
2018-12-21T10:33:32.917Z,943.75
2018-12-21T10:34:32.923Z,943.76
2018-12-21T10:35:32.936Z,943.72
2018-12-21T10:36:32.917Z,943.65
2018-12-21T10:37:32.877Z,943.67
2018-12-21T10:38:32.871Z,943.61
2018-12-21T10:39:32.869Z,943.62
2018-12-21T10:40:32.841Z,943.51
2018-12-21T10:41:32.868Z,943.55
2018-12-21T10:42:32.824Z,943.53
2018-12-21T10:43:32.853Z,943.51
2018-12-21T10:44:32.803Z,943.41
2018-12-21T10:45:41.388Z,943.44
2018-12-21T10:46:33.815Z,943.45
2018-12-21T10:47:32.761Z,943.41
2018-12-21T10:48:32.784Z,943.32
2018-12-21T10:49:32.739Z,943.35
2018-12-21T10:50:32.740Z,943.30
2018-12-21T10:51:32.722Z,943.25
2018-12-21T10:52:32.854Z,943.18
2018-12-21T10:53:32.692Z,943.21
2018-12-21T10:54:32.684Z,943.15
2018-12-21T10:55:32.722Z,943.09
2018-12-21T10:56:32.678Z,943.10
2018-12-21T10:57:32.741Z,943.06
2018-12-21T10:58:32.653Z,943.03
2018-12-21T10:59:32.642Z,942.95
2018-12-21T11:00:32.680Z,942.98
2018-12-21T11:01:32.620Z,942.88
2018-12-21T11:02:32.607Z,942.90
2018-12-21T11:03:32.635Z,942.82
2018-12-21T11:04:32.578Z,942.79
2018-12-21T11:05:32.583Z,942.72
2018-12-21T11:06:32.573Z,942.70
2018-12-21T11:07:32.639Z,942.66
2018-12-21T11:08:32.630Z,942.61
2018-12-21T11:09:32.566Z,942.65
2018-12-21T11:10:32.619Z,942.56
2018-12-21T11:11:32.508Z,942.56
2018-12-21T11:12:32.488Z,942.55
2018-12-21T11:13:32.484Z,942.55
2018-12-21T11:14:32.494Z,942.51
2018-12-21T11:15:32.487Z,942.49
2018-12-21T11:16:32.458Z,942.41
2018-12-21T11:17:32.461Z,942.45
2018-12-21T11:18:32.472Z,942.41
2018-12-21T11:19:33.430Z,942.47
2018-12-21T11:20:33.547Z,942.43
2018-12-21T11:21:32.444Z,942.42
2018-12-21T11:22:32.373Z,942.35
2018-12-21T11:23:33.429Z,942.32
2018-12-21T11:24:35.623Z,942.28
2018-12-21T11:25:32.385Z,942.25
2018-12-21T11:26:32.349Z,942.26
2018-12-21T11:27:32.328Z,942.19
2018-12-21T11:28:33.319Z,942.16
2018-12-21T11:29:32.298Z,942.15
2018-12-21T11:30:32.297Z,942.09
2018-12-21T11:31:32.307Z,942.04
2018-12-21T11:32:32.297Z,942.05
2018-12-21T11:33:33.232Z,942.02
2018-12-21T11:34:32.248Z,941.92
2018-12-21T11:35:32.262Z,941.98
2018-12-21T11:36:32.262Z,941.91
2018-12-21T11:37:32.275Z,941.81
2018-12-21T11:38:32.210Z,941.77
2018-12-21T11:39:32.264Z,941.78
2018-12-21T11:40:32.247Z,941.79
2018-12-21T11:41:32.193Z,941.80
2018-12-21T11:42:32.204Z,941.75
2018-12-21T11:43:32.243Z,941.68
2018-12-21T11:44:32.251Z,941.61
2018-12-21T11:45:32.278Z,941.60
2018-12-21T11:46:32.821Z,941.62
2018-12-21T11:47:33.155Z,941.61
2018-12-21T11:48:33.120Z,941.56
2018-12-21T11:49:32.094Z,941.60
2018-12-21T11:50:32.124Z,941.51
2018-12-21T11:51:44.074Z,941.50
2018-12-21T11:52:32.393Z,941.50
2018-12-21T11:53:43.621Z,941.52
2018-12-21T11:54:32.190Z,941.45
2018-12-21T11:55:32.510Z,941.44
2018-12-21T11:56:34.451Z,941.46
2018-12-21T11:57:32.231Z,941.44
2018-12-21T11:58:32.388Z,941.43
2018-12-21T11:59:32.104Z,941.42
2018-12-21T12:00:43.524Z,941.43
2018-12-21T12:01:32.301Z,941.36
2018-12-21T12:02:32.410Z,941.27
2018-12-21T12:03:32.221Z,941.26
2018-12-21T12:04:32.594Z,941.29
2018-12-21T12:05:31.986Z,941.21
2018-12-21T12:06:32.837Z,941.23
2018-12-21T12:07:31.884Z,941.26
2018-12-21T12:09:44.224Z,941.13
2018-12-21T12:10:43.976Z,941.15
2018-12-21T12:11:43.987Z,941.14
2018-12-21T12:12:43.866Z,941.05
2018-12-21T12:14:14.935Z,941.11
2018-12-21T12:14:44.621Z,941.09
2018-12-21T12:15:44.068Z,941.04
2018-12-21T12:16:43.827Z,941.06
2018-12-21T12:17:53.608Z,940.94
2018-12-21T12:18:44.009Z,941.04
2018-12-21T12:19:43.898Z,940.98
2018-12-21T12:20:43.874Z,941.00
2018-12-21T12:22:55.734Z,941.00
2018-12-21T12:24:06.154Z,940.96
2018-12-21T12:25:05.704Z,940.98
2018-12-21T12:25:55.966Z,941.02
2018-12-21T12:26:54.938Z,940.94
2018-12-21T12:27:55.065Z,940.87
2018-12-21T12:28:54.739Z,940.92
2018-12-21T12:29:55.286Z,940.97
2018-12-21T12:31:04.315Z,940.85